Time,TemperatureF,DewpointF,PressureIn,WindDirection,WindDirectionDegrees,WindSpeedMPH,WindSpeedGustMPH,Humidity,HourlyPrecipIn,Conditions,Clouds,dailyrainin,SoftwareType,DateUTC
2013-01-25 00:10:00,24.5,8.0,30.47,South,170,9.0,13.0,50,0.00,,,0.00,weatherlink.com 1.10,2013-01-25 05:10:00,
2013-01-25 00:25:00,24.2,7.0,30.48,SSE,163,9.0,17.0,49,0.00,,,0.00,weatherlink.com 1.10,2013-01-25 05:25:00,
2013-01-25 00:40:00,23.8,7.0,30.47,SSE,153,2.0,18.0,49,0.00,,,0.00,weatherlink.com 1.10,2013-01-25 05:40:00,
2013-01-25 00:55:00,23.5,7.0,30.47,SSE,158,6.0,16.0,49,0.00,,,0.00,weatherlink.com 1.10,2013-01-25 05:55:00,
2013-01-25 01:10:00,23.1,6.0,30.48,South,171,11.0,15.0,48,0.00,,,0.00,weatherlink.com 1.10,2013-01-25 06:10:00,
2013-01-25 01:25:00,22.9,6.0,30.49,SSW,201,6.0,15.0,49,0.00,,,0.00,weatherlink.com 1.10,2013-01-25 06:25:00,
2013-01-25 01:40:00,22.7,7.0,30.49,SE,139,7.0,14.0,50,0.00,,,0.00,weatherlink.com 1.10,2013-01-25 06:40:00,
2013-01-25 01:55:00,22.6,6.0,30.49,SSE,156,6.0,16.0,49,0.00,,,0.00,weatherlink.com 1.10,2013-01-25 06:55:00,
2013-01-25 02:10:00,22.5,6.0,30.48,SE,127,10.0,15.0,49,0.00,,,0.00,weatherlink.com 1.10,2013-01-25 07:10:00,
2013-01-25 02:25:00,22.3,6.0,30.47,SW,214,13.0,24.0,49,0.00,,,0.00,weatherlink.com 1.10,2013-01-25 07:25:00,
2013-01-25 02:40:00,22.2,5.0,30.47,SSW,207,7.0,19.0,48,0.00,,,0.00,weatherlink.com 1.10,2013-01-25 07:40:00,
2013-01-25 02:55:00,22.2,5.0,30.47,SE,139,8.0,21.0,48,0.00,,,0.00,weatherlink.com 1.10,2013-01-25 07:55:00,
2013-01-25 03:10:00,22.2,5.0,30.47,SE,146,11.0,19.0,47,0.00,,,0.00,weatherlink.com 1.10,2013-01-25 08:10:00,
2013-01-25 03:25:00,22.3,5.0,30.47,South,170,11.0,17.0,48,0.00,,,0.00,weatherlink.com 1.10,2013-01-25 08:25:00,
2013-01-25 03:40:00,22.3,5.0,30.47,SSE,148,12.0,15.0,48,0.00,,,0.00,weatherlink.com 1.10,2013-01-25 08:40:00,
2013-01-25 03:55:00,22.4,5.0,30.47,SSW,198,6.0,19.0,47,0.00,,,0.00,weatherlink.com 1.10,2013-01-25 08:55:00,
2013-01-25 04:10:00,22.6,5.0,30.45,SSE,164,6.0,19.0,47,0.00,,,0.00,weatherlink.com 1.10,2013-01-25 09:10:00,
2013-01-25 04:25:00,22.8,5.0,30.44,SE,144,13.0,16.0,47,0.00,,,0.00,weatherlink.com 1.10,2013-01-25 09:25:00,
2013-01-25 04:40:00,22.9,5.0,30.44,South,174,15.0,22.0,46,0.00,,,0.00,weatherlink.com 1.10,2013-01-25 09:40:00,
2013-01-25 04:55:00,23.0,5.0,30.43,SW,236,2.0,18.0,46,0.00,,,0.00,weatherlink.com 1.10,2013-01-25 09:55:00,
2013-01-25 05:10:00,23.1,5.0,30.43,SSW,202,4.0,19.0,46,0.00,,,0.00,weatherlink.com 1.10,2013-01-25 10:10:00,
2013-01-25 05:25:00,23.2,5.0,30.42,SSE,162,14.0,22.0,46,0.00,,,0.00,weatherlink.com 1.10,2013-01-25 10:25:00,
2013-01-25 05:40:00,23.3,5.0,30.42,SSE,160,12.0,16.0,46,0.00,,,0.00,weatherlink.com 1.10,2013-01-25 10:40:00,
2013-01-25 05:56:00,23.4,5.0,30.41,South,169,9.0,16.0,46,0.00,,,0.00,weatherlink.com 1.10,2013-01-25 10:56:00,
2013-01-25 06:11:00,23.6,5.0,30.41,South,173,5.0,21.0,45,0.00,,,0.00,weatherlink.com 1.10,2013-01-25 11:11:00,
2013-01-25 06:26:00,23.6,5.0,30.42,SSW,201,9.0,20.0,45,0.00,,,0.00,weatherlink.com 1.10,2013-01-25 11:26:00,
2013-01-25 06:41:00,23.4,8.0,30.42,SSE,152,14.0,19.0,51,0.00,,,0.00,weatherlink.com 1.10,2013-01-25 11:41:00,
2013-01-25 06:56:00,22.9,8.0,30.41,SSE,159,15.0,20.0,54,0.00,,,0.00,weatherlink.com 1.10,2013-01-25 11:56:00,
2013-01-25 07:11:00,22.9,8.0,30.41,SSW,198,13.0,22.0,54,0.00,,,0.00,weatherlink.com 1.10,2013-01-25 12:11:00,
2013-01-25 07:26:00,22.8,9.0,30.41,SE,134,6.0,16.0,55,0.00,,,0.00,weatherlink.com 1.10,2013-01-25 12:26:00,
2013-01-25 07:41:00,22.8,8.0,30.40,SSE,152,7.0,22.0,54,0.00,,,0.00,weatherlink.com 1.10,2013-01-25 12:41:00,
2013-01-25 07:56:00,22.9,8.0,30.40,South,179,5.0,22.0,54,0.00,,,0.00,weatherlink.com 1.10,2013-01-25 12:56:00,
2013-01-25 08:11:00,23.1,9.0,30.39,SSE,155,5.0,21.0,54,0.00,,,0.00,weatherlink.com 1.10,2013-01-25 13:11:00,
2013-01-25 08:26:00,23.2,7.0,30.39,South,175,6.0,21.0,51,0.00,,,0.00,weatherlink.com 1.10,2013-01-25 13:26:00,
2013-01-25 08:41:00,23.4,8.0,30.39,SSW,201,10.0,20.0,51,0.00,,,0.00,weatherlink.com 1.10,2013-01-25 13:41:00,
2013-01-25 08:56:00,23.6,7.0,30.40,South,190,9.0,20.0,50,0.00,,,0.00,weatherlink.com 1.10,2013-01-25 13:56:00,
2013-01-25 09:11:00,23.4,10.0,30.39,West,278,7.0,24.0,57,0.00,,,0.00,weatherlink.com 1.10,2013-01-25 14:11:00,
2013-01-25 09:26:00,23.5,9.0,30.38,SSE,150,14.0,23.0,55,0.00,,,0.00,weatherlink.com 1.10,2013-01-25 14:26:00,
2013-01-25 09:41:00,23.6,10.0,30.39,SSW,208,6.0,22.0,56,0.00,,,0.00,weatherlink.com 1.10,2013-01-25 14:41:00,
2013-01-25 09:56:00,23.7,11.0,30.37,South,173,9.0,21.0,59,0.00,,,0.00,weatherlink.com 1.10,2013-01-25 14:56:00,
2013-01-25 10:11:00,24.1,12.0,30.37,SE,146,23.0,26.0,59,0.00,,,0.00,weatherlink.com 1.10,2013-01-25 15:11:00,
2013-01-25 10:26:00,24.1,13.0,30.37,South,187,11.0,26.0,62,0.00,,,0.00,weatherlink.com 1.10,2013-01-25 15:26:00,
2013-01-25 10:41:00,24.1,13.0,30.36,WNW,283,9.0,20.0,63,0.00,,,0.00,weatherlink.com 1.10,2013-01-25 15:41:00,
2013-01-25 10:56:00,24.4,14.0,30.35,South,187,10.0,20.0,66,0.00,,,0.00,weatherlink.com 1.10,2013-01-25 15:56:00,
2013-01-25 11:11:00,24.7,15.0,30.34,SE,125,14.0,23.0,67,0.00,,,0.00,weatherlink.com 1.10,2013-01-25 16:11:00,
2013-01-25 11:26:00,25.1,16.0,30.32,SSE,158,12.0,26.0,69,0.00,,,0.00,weatherlink.com 1.10,2013-01-25 16:26:00,
2013-01-25 11:41:00,25.4,17.0,30.31,SSE,160,17.0,21.0,69,0.00,,,0.00,weatherlink.com 1.10,2013-01-25 16:41:00,
2013-01-25 11:56:00,25.8,17.0,30.30,SE,135,18.0,24.0,70,0.00,,,0.00,weatherlink.com 1.10,2013-01-25 16:56:00,
2013-01-25 12:11:00,25.5,18.0,30.29,South,179,9.0,20.0,72,0.00,,,0.00,weatherlink.com 1.10,2013-01-25 17:11:00,
2013-01-25 12:26:00,25.5,19.0,30.28,SE,135,8.0,19.0,75,0.00,,,0.00,weatherlink.com 1.10,2013-01-25 17:26:00,
2013-01-25 12:41:00,25.8,20.0,30.28,SSE,153,7.0,20.0,78,0.00,,,0.00,weatherlink.com 1.10,2013-01-25 17:41:00,
2013-01-25 12:56:00,26.3,21.0,30.27,South,170,5.0,17.0,80,0.00,,,0.00,weatherlink.com 1.10,2013-01-25 17:56:00,
2013-01-25 13:11:00,27.0,23.0,30.25,SSW,200,6.0,17.0,83,0.00,,,0.00,weatherlink.com 1.10,2013-01-25 18:11:00,
2013-01-25 13:26:00,27.5,24.0,30.25,South,181,9.0,21.0,85,0.00,,,0.00,weatherlink.com 1.10,2013-01-25 18:26:00,
2013-01-25 13:42:00,28.2,25.0,30.23,SE,143,6.0,15.0,86,0.00,,,0.00,weatherlink.com 1.10,2013-01-25 18:42:00,
2013-01-25 13:57:00,28.7,25.0,30.22,SSE,159,10.0,17.0,87,0.00,,,0.00,weatherlink.com 1.10,2013-01-25 18:57:00,
2013-01-25 14:12:00,29.5,26.0,30.20,SSE,155,18.0,18.0,86,0.00,,,0.00,weatherlink.com 1.10,2013-01-25 19:12:00,
2013-01-25 14:27:00,30.4,27.0,30.20,SSE,161,12.0,17.0,87,0.00,,,0.00,weatherlink.com 1.10,2013-01-25 19:27:00,
2013-01-25 14:42:00,30.5,27.0,30.18,WNW,299,3.0,21.0,87,0.00,,,0.00,weatherlink.com 1.10,2013-01-25 19:42:00,
2013-01-25 14:57:00,31.0,28.0,30.19,SE,139,9.0,15.0,87,0.00,,,0.00,weatherlink.com 1.10,2013-01-25 19:57:00,
2013-01-25 15:12:00,32.0,29.0,30.18,SSW,203,7.0,11.0,87,0.00,,,0.00,weatherlink.com 1.10,2013-01-25 20:12:00,
2013-01-25 15:27:00,33.1,29.0,30.16,South,170,6.0,14.0,85,0.00,,,0.00,weatherlink.com 1.10,2013-01-25 20:27:00,
2013-01-25 15:42:00,33.1,29.0,30.16,SE,135,1.0,9.0,85,0.01,,,0.01,weatherlink.com 1.10,2013-01-25 20:42:00,
2013-01-25 15:57:00,33.1,29.0,30.16,South,181,2.0,8.0,86,0.01,,,0.01,weatherlink.com 1.10,2013-01-25 20:57:00,
2013-01-25 16:12:00,33.5,30.0,30.17,NW,305,1.0,4.0,87,0.01,,,0.01,weatherlink.com 1.10,2013-01-25 21:12:00,
2013-01-25 16:27:00,33.5,30.0,30.16,NNW,328,0.0,3.0,87,0.01,,,0.01,weatherlink.com 1.10,2013-01-25 21:27:00,
2013-01-25 16:42:00,32.9,30.0,30.16,NNW,328,6.0,6.0,89,0.00,,,0.01,weatherlink.com 1.10,2013-01-25 21:42:00,
2013-01-25 16:57:00,32.1,30.0,30.16,North,357,6.0,8.0,91,0.00,,,0.01,weatherlink.com 1.10,2013-01-25 21:57:00,
2013-01-25 17:12:00,31.5,29.0,30.16,North,353,4.0,9.0,91,0.00,,,0.01,weatherlink.com 1.10,2013-01-25 22:12:00,
2013-01-25 17:27:00,31.3,29.0,30.17,NNW,342,5.0,8.0,91,0.00,,,0.01,weatherlink.com 1.10,2013-01-25 22:27:00,
2013-01-25 17:42:00,31.2,29.0,30.18,North,350,4.0,10.0,92,0.00,,,0.01,weatherlink.com 1.10,2013-01-25 22:42:00,
2013-01-25 17:57:00,30.9,29.0,30.18,NW,325,3.0,9.0,92,0.00,,,0.01,weatherlink.com 1.10,2013-01-25 22:57:00,
2013-01-25 18:12:00,30.9,29.0,30.18,NNW,335,4.0,6.0,92,0.00,,,0.01,weatherlink.com 1.10,2013-01-25 23:12:00,
2013-01-25 18:27:00,30.9,29.0,30.18,NNW,328,4.0,8.0,92,0.00,,,0.01,weatherlink.com 1.10,2013-01-25 23:27:00,
2013-01-25 18:42:00,30.9,29.0,30.19,NNE,12,8.0,8.0,93,0.00,,,0.01,weatherlink.com 1.10,2013-01-25 23:42:00,
2013-01-25 18:57:00,30.9,29.0,30.19,NW,321,3.0,8.0,93,0.00,,,0.01,weatherlink.com 1.10,2013-01-25 23:57:00,
2013-01-25 19:12:00,31.0,29.0,30.19,NNW,347,4.0,7.0,93,0.00,,,0.01,weatherlink.com 1.10,2013-01-26 00:12:00,
2013-01-25 19:27:00,31.2,29.0,30.19,NNW,328,6.0,7.0,93,0.00,,,0.01,weatherlink.com 1.10,2013-01-26 00:27:00,
2013-01-25 19:42:00,31.3,30.0,30.19,NNW,338,4.0,6.0,94,0.00,,,0.01,weatherlink.com 1.10,2013-01-26 00:42:00,
2013-01-25 19:57:00,31.6,30.0,30.19,North,349,5.0,9.0,94,0.00,,,0.01,weatherlink.com 1.10,2013-01-26 00:57:00,
2013-01-25 20:12:00,31.8,30.0,30.20,NW,319,2.0,6.0,93,0.00,,,0.01,weatherlink.com 1.10,2013-01-26 01:12:00,
2013-01-25 20:27:00,31.9,30.0,30.20,NNE,17,3.0,6.0,93,0.00,,,0.01,weatherlink.com 1.10,2013-01-26 01:27:00,
2013-01-25 20:42:00,32.0,30.0,30.20,NNE,19,3.0,7.0,93,0.00,,,0.01,weatherlink.com 1.10,2013-01-26 01:42:00,
2013-01-25 20:57:00,32.2,30.0,30.20,North,354,5.0,7.0,93,0.00,,,0.01,weatherlink.com 1.10,2013-01-26 01:57:00,
2013-01-25 21:12:00,32.3,31.0,30.20,North,349,4.0,6.0,93,0.00,,,0.01,weatherlink.com 1.10,2013-01-26 02:12:00,
2013-01-25 21:27:00,33.0,31.0,30.21,NNE,26,5.0,6.0,93,0.01,,,0.02,weatherlink.com 1.10,2013-01-26 02:27:00,
2013-01-25 21:42:00,33.2,31.0,30.21,NNW,348,2.0,5.0,93,0.01,,,0.02,weatherlink.com 1.10,2013-01-26 02:42:00,
2013-01-25 21:57:00,33.5,32.0,30.21,NNW,344,3.0,6.0,93,0.01,,,0.02,weatherlink.com 1.10,2013-01-26 02:57:00,
2013-01-25 22:12:00,33.4,32.0,30.21,NNE,30,4.0,7.0,93,0.01,,,0.02,weatherlink.com 1.10,2013-01-26 03:12:00,
2013-01-25 22:27:00,33.9,32.0,30.21,North,6,4.0,6.0,94,0.00,,,0.02,weatherlink.com 1.10,2013-01-26 03:27:00,
2013-01-25 22:42:00,34.1,32.0,30.20,NNE,12,2.0,5.0,93,0.00,,,0.02,weatherlink.com 1.10,2013-01-26 03:42:00,
2013-01-25 22:57:00,34.3,33.0,30.20,WNW,296,4.0,5.0,94,0.00,,,0.02,weatherlink.com 1.10,2013-01-26 03:57:00,
2013-01-25 23:12:00,36.1,35.0,30.21,NNW,335,2.0,10.0,95,0.00,,,0.02,weatherlink.com 1.10,2013-01-26 04:12:00,
2013-01-25 23:27:00,36.9,35.0,30.21,NNW,333,2.0,9.0,94,0.00,,,0.02,weatherlink.com 1.10,2013-01-26 04:27:00,
2013-01-25 23:42:00,37.3,36.0,30.20,NNW,341,7.0,11.0,94,0.00,,,0.02,weatherlink.com 1.10,2013-01-26 04:42:00,
2013-01-25 23:57:00,37.5,36.0,30.21,NNW,340,4.0,11.0,94,0.00,,,0.02,weatherlink.com 1.10,2013-01-26 04:57:00,